sensor_id;sensor_type;location;lat;lon;timestamp;P1;durP1;ratioP1;P2;durP2;ratioP2
23498;SDS011;11926;48.120;11.562;2024-03-23T00:54:12;3.65;;;1.58;;
23498;SDS011;11926;48.120;11.562;2024-03-23T00:56:58;4.13;;;1.50;;
23498;SDS011;11926;48.120;11.562;2024-03-23T00:59:43;3.85;;;1.67;;
23498;SDS011;11926;48.120;11.562;2024-03-23T01:02:29;3.80;;;1.67;;
23498;SDS011;11926;48.120;11.562;2024-03-23T01:05:14;2.85;;;1.38;;
23498;SDS011;11926;48.120;11.562;2024-03-23T01:08:00;4.93;;;2.10;;
23498;SDS011;11926;48.120;11.562;2024-03-23T01:10:54;8.60;;;1.80;;
23498;SDS011;11926;48.120;11.562;2024-03-23T01:13:41;3.97;;;1.80;;
23498;SDS011;11926;48.120;11.562;2024-03-23T01:16:26;6.35;;;1.90;;
23498;SDS011;11926;48.120;11.562;2024-03-23T01:19:13;8.02;;;2.10;;
23498;SDS011;11926;48.120;11.562;2024-03-23T01:21:59;4.97;;;1.58;;
23498;SDS011;11926;48.120;11.562;2024-03-23T01:24:46;3.25;;;1.58;;
23498;SDS011;11926;48.120;11.562;2024-03-23T01:27:33;4.68;;;1.60;;
23498;SDS011;11926;48.120;11.562;2024-03-23T01:30:25;5.13;;;1.30;;
23498;SDS011;11926;48.120;11.562;2024-03-23T01:33:10;3.22;;;1.80;;
23498;SDS011;11926;48.120;11.562;2024-03-23T01:35:57;5.10;;;1.45;;
23498;SDS011;11926;48.120;11.562;2024-03-23T01:38:43;3.38;;;1.75;;
23498;SDS011;11926;48.120;11.562;2024-03-23T01:41:31;5.22;;;1.83;;
23498;SDS011;11926;48.120;11.562;2024-03-23T01:44:18;4.07;;;1.77;;
23498;SDS011;11926;48.120;11.562;2024-03-23T01:47:06;3.67;;;1.83;;
23498;SDS011;11926;48.120;11.562;2024-03-23T01:49:53;3.58;;;1.45;;
23498;SDS011;11926;48.120;11.562;2024-03-23T01:52:43;5.03;;;1.33;;
23498;SDS011;11926;48.120;11.562;2024-03-23T01:55:30;4.43;;;1.75;;
23498;SDS011;11926;48.120;11.562;2024-03-23T01:58:24;4.93;;;1.58;;
23498;SDS011;11926;48.120;11.562;2024-03-23T02:01:14;3.40;;;1.55;;
23498;SDS011;11926;48.120;11.562;2024-03-23T02:03:59;5.85;;;1.83;;
23498;SDS011;11926;48.120;11.562;2024-03-23T02:06:47;12.93;;;2.00;;
23498;SDS011;11926;48.120;11.562;2024-03-23T02:09:34;8.43;;;1.63;;
23498;SDS011;11926;48.120;11.562;2024-03-23T02:12:22;4.35;;;1.58;;
23498;SDS011;11926;48.120;11.562;2024-03-23T02:15:08;4.35;;;1.50;;
23498;SDS011;11926;48.120;11.562;2024-03-23T02:17:58;5.63;;;1.70;;
23498;SDS011;11926;48.120;11.562;2024-03-23T02:20:44;2.65;;;1.40;;
23498;SDS011;11926;48.120;11.562;2024-03-23T02:23:33;3.35;;;1.52;;
23498;SDS011;11926;48.120;11.562;2024-03-23T02:26:19;4.80;;;1.77;;
23498;SDS011;11926;48.120;11.562;2024-03-23T02:29:06;4.18;;;1.60;;
23498;SDS011;11926;48.120;11.562;2024-03-23T02:31:54;4.22;;;1.60;;
23498;SDS011;11926;48.120;11.562;2024-03-23T02:34:41;3.67;;;1.60;;
23498;SDS011;11926;48.120;11.562;2024-03-23T02:37:26;3.22;;;1.80;;
23498;SDS011;11926;48.120;11.562;2024-03-23T02:40:15;4.38;;;1.50;;
23498;SDS011;11926;48.120;11.562;2024-03-23T02:43:01;6.70;;;1.80;;
23498;SDS011;11926;48.120;11.562;2024-03-23T02:45:48;4.78;;;1.60;;
23498;SDS011;11926;48.120;11.562;2024-03-23T02:48:34;4.18;;;1.60;;
23498;SDS011;11926;48.120;11.562;2024-03-23T02:51:21;4.38;;;1.90;;
23498;SDS011;11926;48.120;11.562;2024-03-23T02:54:07;7.63;;;1.73;;
23498;SDS011;11926;48.120;11.562;2024-03-23T02:56:56;6.50;;;1.73;;
23498;SDS011;11926;48.120;11.562;2024-03-23T02:59:42;4.00;;;1.95;;
23498;SDS011;11926;48.120;11.562;2024-03-23T03:02:29;4.45;;;1.95;;
23498;SDS011;11926;48.120;11.562;2024-03-23T03:05:16;5.38;;;1.90;;
23498;SDS011;11926;48.120;11.562;2024-03-23T03:08:03;4.38;;;1.92;;
23498;SDS011;11926;48.120;11.562;2024-03-23T03:10:50;5.55;;;2.10;;
23498;SDS011;11926;48.120;11.562;2024-03-23T03:13:39;4.22;;;1.77;;
23498;SDS011;11926;48.120;11.562;2024-03-23T03:16:26;4.32;;;1.70;;
23498;SDS011;11926;48.120;11.562;2024-03-23T03:19:13;3.65;;;1.88;;
23498;SDS011;11926;48.120;11.562;2024-03-23T03:22:01;3.35;;;1.80;;
23498;SDS011;11926;48.120;11.562;2024-03-23T03:24:48;6.95;;;2.60;;
23498;SDS011;11926;48.120;11.562;2024-03-23T03:27:35;6.95;;;2.13;;
23498;SDS011;11926;48.120;11.562;2024-03-23T03:30:23;5.07;;;2.20;;
23498;SDS011;11926;48.120;11.562;2024-03-23T03:33:12;4.57;;;2.17;;
23498;SDS011;11926;48.120;11.562;2024-03-23T03:35:58;4.63;;;2.20;;
23498;SDS011;11926;48.120;11.562;2024-03-23T03:38:45;5.85;;;2.25;;
23498;SDS011;11926;48.120;11.562;2024-03-23T03:41:31;5.90;;;2.00;;
23498;SDS011;11926;48.120;11.562;2024-03-23T03:44:20;7.20;;;2.35;;
23498;SDS011;11926;48.120;11.562;2024-03-23T03:47:07;4.85;;;2.35;;
23498;SDS011;11926;48.120;11.562;2024-03-23T03:49:54;4.85;;;2.20;;
23498;SDS011;11926;48.120;11.562;2024-03-23T03:52:40;5.15;;;2.33;;
23498;SDS011;11926;48.120;11.562;2024-03-23T03:55:28;3.95;;;2.28;;
23498;SDS011;11926;48.120;11.562;2024-03-23T03:58:14;4.65;;;2.65;;
23498;SDS011;11926;48.120;11.562;2024-03-23T04:01:01;4.90;;;2.28;;
23498;SDS011;11926;48.120;11.562;2024-03-23T04:03:49;4.22;;;2.40;;
23498;SDS011;11926;48.120;11.562;2024-03-23T04:06:43;5.80;;;2.15;;
23498;SDS011;11926;48.120;11.562;2024-03-23T04:09:29;5.32;;;2.10;;
23498;SDS011;11926;48.120;11.562;2024-03-23T04:12:17;3.40;;;1.90;;
23498;SDS011;11926;48.120;11.562;2024-03-23T04:15:03;3.92;;;2.03;;
23498;SDS011;11926;48.120;11.562;2024-03-23T04:17:51;5.07;;;2.50;;
23498;SDS011;11926;48.120;11.562;2024-03-23T04:20:39;5.25;;;2.30;;
23498;SDS011;11926;48.120;11.562;2024-03-23T04:23:26;5.80;;;2.33;;
23498;SDS011;11926;48.120;11.562;2024-03-23T04:26:13;4.68;;;2.13;;
23498;SDS011;11926;48.120;11.562;2024-03-23T04:29:01;3.20;;;1.80;;
23498;SDS011;11926;48.120;11.562;2024-03-23T04:31:50;4.07;;;1.98;;
23498;SDS011;11926;48.120;11.562;2024-03-23T04:34:37;4.15;;;1.77;;
23498;SDS011;11926;48.120;11.562;2024-03-23T04:37:25;3.47;;;1.80;;
23498;SDS011;11926;48.120;11.562;2024-03-23T04:40:12;5.18;;;1.92;;
23498;SDS011;11926;48.120;11.562;2024-03-23T04:42:59;5.22;;;1.92;;
23498;SDS011;11926;48.120;11.562;2024-03-23T04:45:46;4.68;;;1.83;;
23498;SDS011;11926;48.120;11.562;2024-03-23T04:48:34;3.22;;;1.60;;
23498;SDS011;11926;48.120;11.562;2024-03-23T04:51:22;4.45;;;1.90;;
23498;SDS011;11926;48.120;11.562;2024-03-23T04:54:11;3.25;;;1.60;;
23498;SDS011;11926;48.120;11.562;2024-03-23T04:56:58;7.45;;;1.80;;
23498;SDS011;11926;48.120;11.562;2024-03-23T04:59:46;6.45;;;1.65;;
23498;SDS011;11926;48.120;11.562;2024-03-23T05:02:33;4.90;;;2.15;;
23498;SDS011;11926;48.120;11.562;2024-03-23T05:05:22;3.17;;;1.63;;
23498;SDS011;11926;48.120;11.562;2024-03-23T05:08:08;4.07;;;1.60;;
23498;SDS011;11926;48.120;11.562;2024-03-23T05:10:57;6.47;;;1.83;;
23498;SDS011;11926;48.120;11.562;2024-03-23T05:13:45;6.93;;;1.67;;
23498;SDS011;11926;48.120;11.562;2024-03-23T05:16:33;4.10;;;1.95;;
23498;SDS011;11926;48.120;11.562;2024-03-23T05:19:19;3.83;;;1.70;;
23498;SDS011;11926;48.120;11.562;2024-03-23T05:22:07;4.05;;;1.67;;
23498;SDS011;11926;48.120;11.562;2024-03-23T05:24:54;4.95;;;1.98;;
23498;SDS011;11926;48.120;11.562;2024-03-23T05:27:42;4.10;;;1.80;;
23498;SDS011;11926;48.120;11.562;2024-03-23T05:30:30;4.43;;;1.75;;
23498;SDS011;11926;48.120;11.562;2024-03-23T05:33:20;3.35;;;2.00;;
23498;SDS011;11926;48.120;11.562;2024-03-23T05:36:08;4.13;;;2.25;;
23498;SDS011;11926;48.120;11.562;2024-03-23T05:38:56;4.70;;;1.83;;
23498;SDS011;11926;48.120;11.562;2024-03-23T05:41:44;3.65;;;2.15;;
23498;SDS011;11926;48.120;11.562;2024-03-23T05:44:31;4.70;;;1.83;;
23498;SDS011;11926;48.120;11.562;2024-03-23T05:47:18;4.05;;;2.15;;
23498;SDS011;11926;48.120;11.562;2024-03-23T05:50:04;5.50;;;2.03;;
23498;SDS011;11926;48.120;11.562;2024-03-23T05:52:54;3.47;;;2.00;;
23498;SDS011;11926;48.120;11.562;2024-03-23T05:55:40;4.57;;;2.00;;
23498;SDS011;11926;48.120;11.562;2024-03-23T05:58:27;5.60;;;2.13;;
23498;SDS011;11926;48.120;11.562;2024-03-23T06:01:15;5.88;;;2.00;;
23498;SDS011;11926;48.120;11.562;2024-03-23T06:04:02;5.70;;;1.83;;
23498;SDS011;11926;48.120;11.562;2024-03-23T06:06:48;2.97;;;1.60;;
23498;SDS011;11926;48.120;11.562;2024-03-23T06:09:37;4.75;;;1.70;;
23498;SDS011;11926;48.120;11.562;2024-03-23T06:12:23;3.03;;;1.33;;
23498;SDS011;11926;48.120;11.562;2024-03-23T06:15:11;2.15;;;1.30;;
23498;SDS011;11926;48.120;11.562;2024-03-23T06:17:58;5.47;;;1.33;;
23498;SDS011;11926;48.120;11.562;2024-03-23T06:20:45;3.25;;;1.40;;
23498;SDS011;11926;48.120;11.562;2024-03-23T06:23:31;6.93;;;1.58;;
23498;SDS011;11926;48.120;11.562;2024-03-23T06:26:18;4.40;;;1.33;;
23498;SDS011;11926;48.120;11.562;2024-03-23T06:29:04;3.25;;;1.40;;
23498;SDS011;11926;48.120;11.562;2024-03-23T06:31:54;5.40;;;1.35;;
23498;SDS011;11926;48.120;11.562;2024-03-23T06:34:42;6.07;;;1.75;;
23498;SDS011;11926;48.120;11.562;2024-03-23T06:37:30;5.97;;;1.30;;
23498;SDS011;11926;48.120;11.562;2024-03-23T06:40:16;7.75;;;1.50;;
23498;SDS011;11926;48.120;11.562;2024-03-23T06:43:03;3.72;;;1.17;;
23498;SDS011;11926;48.120;11.562;2024-03-23T06:45:52;3.78;;;1.45;;
23498;SDS011;11926;48.120;11.562;2024-03-23T06:48:40;3.53;;;1.30;;
23498;SDS011;11926;48.120;11.562;2024-03-23T06:51:27;2.42;;;1.15;;
23498;SDS011;11926;48.120;11.562;2024-03-23T06:54:14;3.50;;;1.50;;
23498;SDS011;11926;48.120;11.562;2024-03-23T06:57:02;4.57;;;1.50;;
23498;SDS011;11926;48.120;11.562;2024-03-23T06:59:49;5.88;;;1.38;;
23498;SDS011;11926;48.120;11.562;2024-03-23T07:02:37;5.25;;;1.45;;
23498;SDS011;11926;48.120;11.562;2024-03-23T07:05:22;4.65;;;1.55;;
23498;SDS011;11926;48.120;11.562;2024-03-23T07:08:11;3.10;;;1.50;;
23498;SDS011;11926;48.120;11.562;2024-03-23T07:10:57;3.72;;;1.23;;
23498;SDS011;11926;48.120;11.562;2024-03-23T07:13:44;2.63;;;1.42;;
23498;SDS011;11926;48.120;11.562;2024-03-23T07:16:30;4.10;;;1.60;;
23498;SDS011;11926;48.120;11.562;2024-03-23T07:19:18;4.70;;;1.52;;
23498;SDS011;11926;48.120;11.562;2024-03-23T07:22:04;2.33;;;1.40;;
23498;SDS011;11926;48.120;11.562;2024-03-23T07:24:54;2.10;;;1.10;;
23498;SDS011;11926;48.120;11.562;2024-03-23T07:27:39;3.95;;;1.33;;
23498;SDS011;11926;48.120;11.562;2024-03-23T07:30:26;3.80;;;1.38;;
23498;SDS011;11926;48.120;11.562;2024-03-23T07:33:13;2.45;;;1.13;;
23498;SDS011;11926;48.120;11.562;2024-03-23T07:36:00;2.85;;;1.20;;
23498;SDS011;11926;48.120;11.562;2024-03-23T07:38:46;4.72;;;2.13;;
23498;SDS011;11926;48.120;11.562;2024-03-23T07:41:35;3.63;;;1.42;;
23498;SDS011;11926;48.120;11.562;2024-03-23T07:44:22;4.25;;;1.40;;
23498;SDS011;11926;48.120;11.562;2024-03-23T07:47:08;5.13;;;1.70;;
23498;SDS011;11926;48.120;11.562;2024-03-23T07:49:56;5.22;;;2.30;;
23498;SDS011;11926;48.120;11.562;2024-03-23T07:52:42;4.50;;;1.75;;
23498;SDS011;11926;48.120;11.562;2024-03-23T07:55:29;3.08;;;1.50;;
23498;SDS011;11926;48.120;11.562;2024-03-23T07:58:16;4.68;;;1.73;;
23498;SDS011;11926;48.120;11.562;2024-03-23T08:01:05;4.13;;;1.88;;
23498;SDS011;11926;48.120;11.562;2024-03-23T08:03:53;5.70;;;2.00;;
23498;SDS011;11926;48.120;11.562;2024-03-23T08:06:41;5.00;;;2.28;;
23498;SDS011;11926;48.120;11.562;2024-03-23T08:09:26;5.25;;;2.45;;
23498;SDS011;11926;48.120;11.562;2024-03-23T08:12:14;4.80;;;1.85;;
23498;SDS011;11926;48.120;11.562;2024-03-23T08:15:02;6.05;;;2.33;;
23498;SDS011;11926;48.120;11.562;2024-03-23T08:17:49;6.28;;;2.20;;
23498;SDS011;11926;48.120;11.562;2024-03-23T08:20:35;6.18;;;2.45;;
23498;SDS011;11926;48.120;11.562;2024-03-23T08:23:23;4.82;;;2.78;;
23498;SDS011;11926;48.120;11.562;2024-03-23T08:26:11;5.25;;;2.00;;
23498;SDS011;11926;48.120;11.562;2024-03-23T08:29:02;4.97;;;2.30;;
23498;SDS011;11926;48.120;11.562;2024-03-23T08:31:49;5.35;;;2.35;;
23498;SDS011;11926;48.120;11.562;2024-03-23T08:34:36;3.33;;;2.00;;
23498;SDS011;11926;48.120;11.562;2024-03-23T08:37:23;6.03;;;2.00;;
23498;SDS011;11926;48.120;11.562;2024-03-23T08:40:11;3.88;;;1.95;;
23498;SDS011;11926;48.120;11.562;2024-03-23T08:42:57;6.47;;;2.50;;
23498;SDS011;11926;48.120;11.562;2024-03-23T08:45:44;4.05;;;2.30;;
23498;SDS011;11926;48.120;11.562;2024-03-23T08:48:32;5.15;;;2.15;;
23498;SDS011;11926;48.120;11.562;2024-03-23T08:51:22;3.72;;;2.10;;
23498;SDS011;11926;48.120;11.562;2024-03-23T08:54:07;3.80;;;2.40;;
23498;SDS011;11926;48.120;11.562;2024-03-23T08:56:55;4.88;;;2.50;;
23498;SDS011;11926;48.120;11.562;2024-03-23T08:59:41;4.35;;;2.53;;
23498;SDS011;11926;48.120;11.562;2024-03-23T09:02:28;4.18;;;2.55;;
23498;SDS011;11926;48.120;11.562;2024-03-23T09:05:16;8.13;;;2.83;;
23498;SDS011;11926;48.120;11.562;2024-03-23T09:08:02;6.75;;;2.92;;
23498;SDS011;11926;48.120;11.562;2024-03-23T09:10:49;5.63;;;2.65;;
23498;SDS011;11926;48.120;11.562;2024-03-23T09:13:37;4.90;;;3.10;;
23498;SDS011;11926;48.120;11.562;2024-03-23T09:16:23;5.63;;;3.13;;
23498;SDS011;11926;48.120;11.562;2024-03-23T09:19:10;7.20;;;3.40;;
23498;SDS011;11926;48.120;11.562;2024-03-23T09:21:58;5.15;;;3.05;;
23498;SDS011;11926;48.120;11.562;2024-03-23T09:24:45;6.97;;;3.03;;
23498;SDS011;11926;48.120;11.562;2024-03-23T09:27:31;4.55;;;2.55;;
23498;SDS011;11926;48.120;11.562;2024-03-23T09:30:18;5.43;;;2.63;;
23498;SDS011;11926;48.120;11.562;2024-03-23T09:33:05;4.80;;;2.30;;
23498;SDS011;11926;48.120;11.562;2024-03-23T09:35:53;5.32;;;2.65;;
23498;SDS011;11926;48.120;11.562;2024-03-23T09:38:43;3.50;;;1.70;;
23498;SDS011;11926;48.120;11.562;2024-03-23T09:41:30;2.90;;;1.63;;
23498;SDS011;11926;48.120;11.562;2024-03-23T09:44:16;2.83;;;1.20;;
23498;SDS011;11926;48.120;11.562;2024-03-23T09:47:04;2.85;;;1.20;;
23498;SDS011;11926;48.120;11.562;2024-03-23T09:49:50;2.38;;;1.02;;
23498;SDS011;11926;48.120;11.562;2024-03-23T09:52:38;2.30;;;1.20;;
23498;SDS011;11926;48.120;11.562;2024-03-23T09:55:26;6.53;;;1.20;;
23498;SDS011;11926;48.120;11.562;2024-03-23T09:58:13;2.92;;;1.20;;
23498;SDS011;11926;48.120;11.562;2024-03-23T10:01:02;1.65;;;0.90;;
23498;SDS011;11926;48.120;11.562;2024-03-23T10:03:49;1.88;;;0.95;;
23498;SDS011;11926;48.120;11.562;2024-03-23T10:06:35;3.08;;;1.23;;
23498;SDS011;11926;48.120;11.562;2024-03-23T10:09:23;2.45;;;1.20;;
23498;SDS011;11926;48.120;11.562;2024-03-23T10:12:14;3.03;;;1.50;;
23498;SDS011;11926;48.120;11.562;2024-03-23T10:15:02;2.63;;;1.33;;
23498;SDS011;11926;48.120;11.562;2024-03-23T10:18:02;1.88;;;1.10;;
23498;SDS011;11926;48.120;11.562;2024-03-23T10:21:09;2.17;;;1.27;;
23498;SDS011;11926;48.120;11.562;2024-03-23T10:23:56;1.75;;;1.02;;
23498;SDS011;11926;48.120;11.562;2024-03-23T10:26:55;4.03;;;1.55;;
23498;SDS011;11926;48.120;11.562;2024-03-23T10:29:44;2.75;;;1.23;;
23498;SDS011;11926;48.120;11.562;2024-03-23T10:32:30;1.88;;;1.10;;
23498;SDS011;11926;48.120;11.562;2024-03-23T10:35:17;5.10;;;1.30;;
23498;SDS011;11926;48.120;11.562;2024-03-23T10:38:04;2.33;;;1.00;;
23498;SDS011;11926;48.120;11.562;2024-03-23T10:40:53;1.17;;;0.80;;
23498;SDS011;11926;48.120;11.562;2024-03-23T10:43:40;2.50;;;1.00;;
23498;SDS011;11926;48.120;11.562;2024-03-23T10:46:35;4.35;;;1.50;;
23498;SDS011;11926;48.120;11.562;2024-03-23T10:49:22;1.38;;;0.45;;
23498;SDS011;11926;48.120;11.562;2024-03-23T10:52:10;1.80;;;0.60;;
23498;SDS011;11926;48.120;11.562;2024-03-23T10:54:56;1.08;;;0.55;;
23498;SDS011;11926;48.120;11.562;2024-03-23T10:57:45;1.13;;;0.60;;
23498;SDS011;11926;48.120;11.562;2024-03-23T11:00:36;0.60;;;0.43;;
23498;SDS011;11926;48.120;11.562;2024-03-23T11:03:33;1.92;;;0.80;;
23498;SDS011;11926;48.120;11.562;2024-03-23T11:06:34;1.10;;;0.50;;
23498;SDS011;11926;48.120;11.562;2024-03-23T11:09:38;1.08;;;0.60;;
23498;SDS011;11926;48.120;11.562;2024-03-23T11:12:34;1.95;;;0.70;;
23498;SDS011;11926;48.120;11.562;2024-03-23T11:15:21;2.25;;;0.88;;
23498;SDS011;11926;48.120;11.562;2024-03-23T11:18:07;1.55;;;0.88;;
23498;SDS011;11926;48.120;11.562;2024-03-23T11:20:59;1.63;;;0.80;;
23498;SDS011;11926;48.120;11.562;2024-03-23T11:23:45;1.83;;;1.00;;
23498;SDS011;11926;48.120;11.562;2024-03-23T11:26:32;2.80;;;1.27;;
23498;SDS011;11926;48.120;11.562;2024-03-23T11:29:23;1.30;;;0.60;;
23498;SDS011;11926;48.120;11.562;2024-03-23T11:32:10;1.52;;;0.70;;
23498;SDS011;11926;48.120;11.562;2024-03-23T11:34:58;3.65;;;0.70;;
23498;SDS011;11926;48.120;11.562;2024-03-23T11:37:46;3.03;;;0.90;;
23498;SDS011;11926;48.120;11.562;2024-03-23T11:40:46;2.13;;;0.80;;
23498;SDS011;11926;48.120;11.562;2024-03-23T11:43:35;1.27;;;0.70;;
23498;SDS011;11926;48.120;11.562;2024-03-23T11:46:24;2.22;;;1.00;;
23498;SDS011;11926;48.120;11.562;2024-03-23T11:49:22;4.00;;;1.35;;
23498;SDS011;11926;48.120;11.562;2024-03-23T11:52:08;4.35;;;1.13;;
23498;SDS011;11926;48.120;11.562;2024-03-23T11:55:05;5.03;;;1.23;;
23498;SDS011;11926;48.120;11.562;2024-03-23T11:57:54;3.38;;;1.13;;
23498;SDS011;11926;48.120;11.562;2024-03-23T12:00:41;2.60;;;0.90;;
23498;SDS011;11926;48.120;11.562;2024-03-23T12:03:27;3.42;;;1.00;;
23498;SDS011;11926;48.120;11.562;2024-03-23T12:06:19;3.03;;;1.38;;
23498;SDS011;11926;48.120;11.562;2024-03-23T12:09:06;3.85;;;1.17;;
23498;SDS011;11926;48.120;11.562;2024-03-23T12:11:55;2.88;;;1.23;;
23498;SDS011;11926;48.120;11.562;2024-03-23T12:14:41;2.53;;;1.20;;
23498;SDS011;11926;48.120;11.562;2024-03-23T12:17:29;2.95;;;1.30;;
23498;SDS011;11926;48.120;11.562;2024-03-23T12:20:15;4.70;;;1.23;;
23498;SDS011;11926;48.120;11.562;2024-03-23T12:23:08;3.08;;;1.65;;
23498;SDS011;11926;48.120;11.562;2024-03-23T12:25:59;3.40;;;1.20;;
23498;SDS011;11926;48.120;11.562;2024-03-23T12:28:48;4.45;;;1.45;;
23498;SDS011;11926;48.120;11.562;2024-03-23T12:31:35;3.67;;;1.50;;
23498;SDS011;11926;48.120;11.562;2024-03-23T12:34:22;5.05;;;1.70;;
23498;SDS011;11926;48.120;11.562;2024-03-23T12:37:09;4.70;;;2.17;;
23498;SDS011;11926;48.120;11.562;2024-03-23T12:39:57;4.85;;;1.85;;
23498;SDS011;11926;48.120;11.562;2024-03-23T12:42:43;6.15;;;1.75;;
23498;SDS011;11926;48.120;11.562;2024-03-23T12:45:33;4.35;;;1.95;;
23498;SDS011;11926;48.120;11.562;2024-03-23T12:48:20;3.53;;;1.75;;
23498;SDS011;11926;48.120;11.562;2024-03-23T12:51:09;4.50;;;1.70;;
23498;SDS011;11926;48.120;11.562;2024-03-23T12:53:55;4.68;;;1.80;;
23498;SDS011;11926;48.120;11.562;2024-03-23T12:56:42;3.85;;;1.90;;
23498;SDS011;11926;48.120;11.562;2024-03-23T12:59:28;5.15;;;1.83;;
23498;SDS011;11926;48.120;11.562;2024-03-23T13:02:16;4.90;;;1.83;;
23498;SDS011;11926;48.120;11.562;2024-03-23T13:05:04;3.90;;;1.95;;
23498;SDS011;11926;48.120;11.562;2024-03-23T13:07:52;5.15;;;1.90;;
23498;SDS011;11926;48.120;11.562;2024-03-23T13:10:38;4.30;;;1.85;;
23498;SDS011;11926;48.120;11.562;2024-03-23T13:13:25;8.38;;;1.73;;
23498;SDS011;11926;48.120;11.562;2024-03-23T13:16:13;7.55;;;1.98;;
23498;SDS011;11926;48.120;11.562;2024-03-23T13:19:01;8.57;;;1.70;;
23498;SDS011;11926;48.120;11.562;2024-03-23T13:21:49;3.90;;;1.60;;
23498;SDS011;11926;48.120;11.562;2024-03-23T13:24:35;7.70;;;2.60;;
23498;SDS011;11926;48.120;11.562;2024-03-23T13:27:23;4.63;;;1.73;;
23498;SDS011;11926;48.120;11.562;2024-03-23T13:30:10;5.80;;;2.08;;
23498;SDS011;11926;48.120;11.562;2024-03-23T13:32:58;5.50;;;2.10;;
23498;SDS011;11926;48.120;11.562;2024-03-23T13:35:51;7.22;;;2.13;;
23498;SDS011;11926;48.120;11.562;2024-03-23T13:38:39;6.95;;;1.88;;
23498;SDS011;11926;48.120;11.562;2024-03-23T13:41:25;5.88;;;2.05;;
23498;SDS011;11926;48.120;11.562;2024-03-23T13:44:12;4.95;;;1.92;;
23498;SDS011;11926;48.120;11.562;2024-03-23T13:47:00;8.35;;;1.90;;
23498;SDS011;11926;48.120;11.562;2024-03-23T13:49:46;8.20;;;2.30;;
23498;SDS011;11926;48.120;11.562;2024-03-23T13:52:35;5.07;;;1.85;;
23498;SDS011;11926;48.120;11.562;2024-03-23T13:55:21;7.43;;;2.20;;
23498;SDS011;11926;48.120;11.562;2024-03-23T13:58:09;6.85;;;3.03;;
23498;SDS011;11926;48.120;11.562;2024-03-23T14:00:57;6.68;;;2.80;;
23498;SDS011;11926;48.120;11.562;2024-03-23T14:03:44;7.53;;;3.28;;
23498;SDS011;11926;48.120;11.562;2024-03-23T14:06:30;8.07;;;3.60;;
23498;SDS011;11926;48.120;11.562;2024-03-23T14:09:18;6.68;;;3.00;;
23498;SDS011;11926;48.120;11.562;2024-03-23T14:12:07;6.93;;;2.53;;
23498;SDS011;11926;48.120;11.562;2024-03-23T14:14:55;8.32;;;2.70;;
23498;SDS011;11926;48.120;11.562;2024-03-23T14:17:41;10.02;;;3.30;;
23498;SDS011;11926;48.120;11.562;2024-03-23T14:20:28;12.52;;;3.20;;
23498;SDS011;11926;48.120;11.562;2024-03-23T14:23:14;9.85;;;3.22;;
23498;SDS011;11926;48.120;11.562;2024-03-23T14:26:05;6.93;;;3.20;;
23498;SDS011;11926;48.120;11.562;2024-03-23T14:28:52;6.18;;;3.03;;
23498;SDS011;11926;48.120;11.562;2024-03-23T14:31:39;9.18;;;3.38;;
23498;SDS011;11926;48.120;11.562;2024-03-23T14:34:28;11.93;;;3.38;;
23498;SDS011;11926;48.120;11.562;2024-03-23T14:37:15;4.55;;;2.60;;
23498;SDS011;11926;48.120;11.562;2024-03-23T14:40:01;9.40;;;1.73;;
23498;SDS011;11926;48.120;11.562;2024-03-23T14:42:50;8.18;;;1.63;;
23498;SDS011;11926;48.120;11.562;2024-03-23T14:45:37;6.95;;;1.60;;
23498;SDS011;11926;48.120;11.562;2024-03-23T14:48:36;6.55;;;1.40;;
23498;SDS011;11926;48.120;11.562;2024-03-23T14:51:23;7.55;;;1.40;;
23498;SDS011;11926;48.120;11.562;2024-03-23T14:54:09;6.70;;;1.60;;
23498;SDS011;11926;48.120;11.562;2024-03-23T14:56:57;7.65;;;1.90;;
23498;SDS011;11926;48.120;11.562;2024-03-23T14:59:46;7.43;;;1.75;;
23498;SDS011;11926;48.120;11.562;2024-03-23T15:02:35;5.97;;;2.13;;
23498;SDS011;11926;48.120;11.562;2024-03-23T15:05:21;4.72;;;1.60;;
23498;SDS011;11926;48.120;11.562;2024-03-23T15:08:08;6.18;;;1.77;;
23498;SDS011;11926;48.120;11.562;2024-03-23T15:10:54;6.22;;;1.98;;
23498;SDS011;11926;48.120;11.562;2024-03-23T15:13:45;5.10;;;1.88;;
23498;SDS011;11926;48.120;11.562;2024-03-23T15:16:36;8.18;;;2.38;;
23498;SDS011;11926;48.120;11.562;2024-03-23T15:19:23;9.38;;;2.08;;
23498;SDS011;11926;48.120;11.562;2024-03-23T15:22:09;5.75;;;1.98;;
23498;SDS011;11926;48.120;11.562;2024-03-23T15:24:56;6.90;;;1.88;;
23498;SDS011;11926;48.120;11.562;2024-03-23T15:27:43;6.47;;;2.10;;
23498;SDS011;11926;48.120;11.562;2024-03-23T15:30:29;7.93;;;2.58;;
23498;SDS011;11926;48.120;11.562;2024-03-23T15:33:18;9.07;;;2.30;;
23498;SDS011;11926;48.120;11.562;2024-03-23T15:36:04;5.80;;;2.70;;
23498;SDS011;11926;48.120;11.562;2024-03-23T15:38:52;13.38;;;2.13;;
23498;SDS011;11926;48.120;11.562;2024-03-23T15:41:40;8.27;;;2.15;;
23498;SDS011;11926;48.120;11.562;2024-03-23T15:44:33;5.45;;;2.10;;
23498;SDS011;11926;48.120;11.562;2024-03-23T15:47:19;8.75;;;2.05;;
23498;SDS011;11926;48.120;11.562;2024-03-23T15:50:10;5.75;;;2.38;;
23498;SDS011;11926;48.120;11.562;2024-03-23T15:52:56;8.82;;;2.55;;
23498;SDS011;11926;48.120;11.562;2024-03-23T15:55:43;5.60;;;2.35;;
23498;SDS011;11926;48.120;11.562;2024-03-23T15:58:30;8.85;;;2.45;;
23498;SDS011;11926;48.120;11.562;2024-03-23T16:01:19;6.60;;;2.20;;
23498;SDS011;11926;48.120;11.562;2024-03-23T16:04:05;8.05;;;2.80;;
23498;SDS011;11926;48.120;11.562;2024-03-23T16:06:54;8.45;;;2.22;;
23498;SDS011;11926;48.120;11.562;2024-03-23T16:09:40;7.53;;;2.03;;
23498;SDS011;11926;48.120;11.562;2024-03-23T16:12:26;5.30;;;2.47;;
23498;SDS011;11926;48.120;11.562;2024-03-23T16:15:12;8.13;;;2.80;;
23498;SDS011;11926;48.120;11.562;2024-03-23T16:18:00;4.53;;;1.90;;
23498;SDS011;11926;48.120;11.562;2024-03-23T16:20:53;6.63;;;2.22;;
23498;SDS011;11926;48.120;11.562;2024-03-23T16:23:42;5.65;;;2.53;;
23498;SDS011;11926;48.120;11.562;2024-03-23T16:26:29;7.13;;;2.20;;
23498;SDS011;11926;48.120;11.562;2024-03-23T16:29:16;6.10;;;2.67;;
23498;SDS011;11926;48.120;11.562;2024-03-23T16:32:03;6.22;;;2.10;;
23498;SDS011;11926;48.120;11.562;2024-03-23T16:34:49;8.65;;;2.72;;
23498;SDS011;11926;48.120;11.562;2024-03-23T16:37:39;8.73;;;2.78;;
23498;SDS011;11926;48.120;11.562;2024-03-23T16:40:26;6.35;;;2.47;;
23498;SDS011;11926;48.120;11.562;2024-03-23T16:43:14;6.68;;;2.45;;
23498;SDS011;11926;48.120;11.562;2024-03-23T16:46:02;5.65;;;2.33;;
23498;SDS011;11926;48.120;11.562;2024-03-23T16:48:51;8.35;;;2.70;;
23498;SDS011;11926;48.120;11.562;2024-03-23T16:51:37;7.70;;;2.40;;
23498;SDS011;11926;48.120;11.562;2024-03-23T16:54:24;7.65;;;2.00;;
23498;SDS011;11926;48.120;11.562;2024-03-23T16:57:11;8.43;;;2.50;;
23498;SDS011;11926;48.120;11.562;2024-03-23T16:59:59;7.45;;;2.20;;
23498;SDS011;11926;48.120;11.562;2024-03-23T17:02:45;8.18;;;2.17;;
23498;SDS011;11926;48.120;11.562;2024-03-23T17:05:49;7.40;;;2.50;;
23498;SDS011;11926;48.120;11.562;2024-03-23T17:08:36;6.30;;;2.40;;
23498;SDS011;11926;48.120;11.562;2024-03-23T17:11:22;6.32;;;2.53;;
23498;SDS011;11926;48.120;11.562;2024-03-23T17:14:11;6.00;;;2.65;;
23498;SDS011;11926;48.120;11.562;2024-03-23T17:16:59;8.32;;;2.38;;
23498;SDS011;11926;48.120;11.562;2024-03-23T17:19:47;5.18;;;1.80;;
23498;SDS011;11926;48.120;11.562;2024-03-23T17:22:33;5.38;;;1.90;;
23498;SDS011;11926;48.120;11.562;2024-03-23T17:25:20;4.80;;;1.70;;
23498;SDS011;11926;48.120;11.562;2024-03-23T17:28:07;5.03;;;1.60;;